sensor_id;sensor_type;location;lat;lon;timestamp;P1;durP1;ratioP1;P2;durP2;ratioP2
14330;SDS011;7249;49.376;11.080;2024-01-16T00:01:45;2.40;;;2.10;;
14330;SDS011;7249;49.376;11.080;2024-01-16T00:04:11;4.47;;;2.13;;
14330;SDS011;7249;49.376;11.080;2024-01-16T00:06:40;1.57;;;1.47;;
14330;SDS011;7249;49.376;11.080;2024-01-16T00:09:07;3.00;;;1.80;;
14330;SDS011;7249;49.376;11.080;2024-01-16T00:11:32;2.00;;;1.80;;
14330;SDS011;7249;49.376;11.080;2024-01-16T00:13:58;2.60;;;1.97;;
14330;SDS011;7249;49.376;11.080;2024-01-16T00:16:24;4.23;;;2.20;;
14330;SDS011;7249;49.376;11.080;2024-01-16T00:18:50;2.80;;;2.13;;
14330;SDS011;7249;49.376;11.080;2024-01-16T00:21:15;2.20;;;2.00;;
14330;SDS011;7249;49.376;11.080;2024-01-16T00:23:41;2.97;;;1.97;;
14330;SDS011;7249;49.376;11.080;2024-01-16T00:26:06;2.40;;;1.97;;
14330;SDS011;7249;49.376;11.080;2024-01-16T00:28:32;5.10;;;2.10;;
14330;SDS011;7249;49.376;11.080;2024-01-16T00:30:58;2.63;;;1.73;;
14330;SDS011;7249;49.376;11.080;2024-01-16T00:33:23;1.97;;;1.77;;
14330;SDS011;7249;49.376;11.080;2024-01-16T00:35:49;3.10;;;2.17;;
14330;SDS011;7249;49.376;11.080;2024-01-16T00:38:15;2.03;;;1.60;;
14330;SDS011;7249;49.376;11.080;2024-01-16T00:40:40;2.97;;;1.90;;
14330;SDS011;7249;49.376;11.080;2024-01-16T00:43:06;2.77;;;1.77;;
14330;SDS011;7249;49.376;11.080;2024-01-16T00:45:32;2.43;;;2.10;;
14330;SDS011;7249;49.376;11.080;2024-01-16T00:47:57;6.07;;;1.83;;
14330;SDS011;7249;49.376;11.080;2024-01-16T00:50:23;3.57;;;2.00;;
14330;SDS011;7249;49.376;11.080;2024-01-16T00:52:49;2.00;;;1.90;;
14330;SDS011;7249;49.376;11.080;2024-01-16T00:55:15;2.40;;;1.87;;
14330;SDS011;7249;49.376;11.080;2024-01-16T00:57:41;2.67;;;2.27;;
14330;SDS011;7249;49.376;11.080;2024-01-16T01:00:06;2.03;;;1.83;;
14330;SDS011;7249;49.376;11.080;2024-01-16T01:02:34;2.20;;;1.73;;
14330;SDS011;7249;49.376;11.080;2024-01-16T01:05:00;2.93;;;2.17;;
14330;SDS011;7249;49.376;11.080;2024-01-16T01:07:26;2.00;;;1.60;;
14330;SDS011;7249;49.376;11.080;2024-01-16T01:09:52;2.10;;;1.90;;
14330;SDS011;7249;49.376;11.080;2024-01-16T01:12:17;2.60;;;1.63;;
14330;SDS011;7249;49.376;11.080;2024-01-16T01:14:43;2.83;;;1.63;;
14330;SDS011;7249;49.376;11.080;2024-01-16T01:17:09;4.00;;;2.00;;
14330;SDS011;7249;49.376;11.080;2024-01-16T01:19:34;1.93;;;1.80;;
14330;SDS011;7249;49.376;11.080;2024-01-16T01:22:00;2.10;;;1.67;;
14330;SDS011;7249;49.376;11.080;2024-01-16T01:24:26;2.83;;;2.10;;
14330;SDS011;7249;49.376;11.080;2024-01-16T01:26:51;2.20;;;1.83;;
14330;SDS011;7249;49.376;11.080;2024-01-16T01:29:17;2.70;;;1.90;;
14330;SDS011;7249;49.376;11.080;2024-01-16T01:31:45;2.67;;;2.00;;
14330;SDS011;7249;49.376;11.080;2024-01-16T01:34:13;2.73;;;2.50;;
14330;SDS011;7249;49.376;11.080;2024-01-16T01:36:38;3.20;;;2.30;;
14330;SDS011;7249;49.376;11.080;2024-01-16T01:39:04;2.67;;;1.83;;
14330;SDS011;7249;49.376;11.080;2024-01-16T01:41:30;2.53;;;2.33;;
14330;SDS011;7249;49.376;11.080;2024-01-16T01:43:56;3.33;;;2.80;;
14330;SDS011;7249;49.376;11.080;2024-01-16T01:46:22;4.13;;;2.73;;
14330;SDS011;7249;49.376;11.080;2024-01-16T01:48:48;2.37;;;1.97;;
14330;SDS011;7249;49.376;11.080;2024-01-16T01:51:16;5.17;;;2.77;;
14330;SDS011;7249;49.376;11.080;2024-01-16T01:53:43;3.50;;;2.37;;
14330;SDS011;7249;49.376;11.080;2024-01-16T01:56:13;3.83;;;2.73;;
14330;SDS011;7249;49.376;11.080;2024-01-16T01:58:40;5.03;;;2.60;;
14330;SDS011;7249;49.376;11.080;2024-01-16T02:01:08;2.80;;;2.00;;
14330;SDS011;7249;49.376;11.080;2024-01-16T02:03:35;2.77;;;2.03;;
14330;SDS011;7249;49.376;11.080;2024-01-16T02:06:06;3.70;;;2.03;;
14330;SDS011;7249;49.376;11.080;2024-01-16T02:08:32;2.70;;;2.43;;
14330;SDS011;7249;49.376;11.080;2024-01-16T02:10:58;7.10;;;2.10;;
14330;SDS011;7249;49.376;11.080;2024-01-16T02:13:24;4.77;;;2.50;;
14330;SDS011;7249;49.376;11.080;2024-01-16T02:15:50;2.97;;;2.60;;
14330;SDS011;7249;49.376;11.080;2024-01-16T02:18:16;2.73;;;1.80;;
14330;SDS011;7249;49.376;11.080;2024-01-16T02:20:43;2.30;;;2.03;;
14330;SDS011;7249;49.376;11.080;2024-01-16T02:23:09;2.77;;;2.20;;
14330;SDS011;7249;49.376;11.080;2024-01-16T02:25:37;1.90;;;1.77;;
14330;SDS011;7249;49.376;11.080;2024-01-16T02:28:04;3.60;;;2.30;;
14330;SDS011;7249;49.376;11.080;2024-01-16T02:30:29;2.30;;;1.87;;
14330;SDS011;7249;49.376;11.080;2024-01-16T02:32:55;2.33;;;1.97;;
14330;SDS011;7249;49.376;11.080;2024-01-16T02:35:21;4.53;;;3.20;;
14330;SDS011;7249;49.376;11.080;2024-01-16T02:37:47;3.47;;;2.50;;
14330;SDS011;7249;49.376;11.080;2024-01-16T02:40:12;8.77;;;2.57;;
14330;SDS011;7249;49.376;11.080;2024-01-16T02:42:38;7.60;;;2.30;;
14330;SDS011;7249;49.376;11.080;2024-01-16T02:45:04;7.03;;;2.87;;
14330;SDS011;7249;49.376;11.080;2024-01-16T02:47:30;2.73;;;2.20;;
14330;SDS011;7249;49.376;11.080;2024-01-16T02:49:56;4.40;;;2.67;;
14330;SDS011;7249;49.376;11.080;2024-01-16T02:52:23;4.27;;;2.30;;
14330;SDS011;7249;49.376;11.080;2024-01-16T02:54:49;3.43;;;2.03;;
14330;SDS011;7249;49.376;11.080;2024-01-16T02:57:14;3.77;;;2.30;;
14330;SDS011;7249;49.376;11.080;2024-01-16T02:59:43;3.47;;;2.33;;
14330;SDS011;7249;49.376;11.080;2024-01-16T03:02:09;5.27;;;2.73;;
14330;SDS011;7249;49.376;11.080;2024-01-16T03:04:35;2.33;;;2.13;;
14330;SDS011;7249;49.376;11.080;2024-01-16T03:07:00;2.83;;;2.60;;
14330;SDS011;7249;49.376;11.080;2024-01-16T03:09:26;5.03;;;2.40;;
14330;SDS011;7249;49.376;11.080;2024-01-16T03:11:52;3.57;;;2.60;;
14330;SDS011;7249;49.376;11.080;2024-01-16T03:14:17;4.87;;;2.17;;
14330;SDS011;7249;49.376;11.080;2024-01-16T03:16:43;8.33;;;2.70;;
14330;SDS011;7249;49.376;11.080;2024-01-16T03:19:09;3.47;;;2.53;;
14330;SDS011;7249;49.376;11.080;2024-01-16T03:21:37;4.83;;;2.50;;
14330;SDS011;7249;49.376;11.080;2024-01-16T03:24:04;3.53;;;2.20;;
14330;SDS011;7249;49.376;11.080;2024-01-16T03:26:31;3.27;;;2.43;;
14330;SDS011;7249;49.376;11.080;2024-01-16T03:28:57;8.53;;;2.57;;
14330;SDS011;7249;49.376;11.080;2024-01-16T03:31:23;4.57;;;3.00;;
14330;SDS011;7249;49.376;11.080;2024-01-16T03:33:49;3.10;;;2.50;;
14330;SDS011;7249;49.376;11.080;2024-01-16T03:36:15;3.97;;;2.50;;
14330;SDS011;7249;49.376;11.080;2024-01-16T03:38:44;4.03;;;3.00;;
14330;SDS011;7249;49.376;11.080;2024-01-16T03:41:12;3.13;;;2.43;;
14330;SDS011;7249;49.376;11.080;2024-01-16T03:43:39;4.87;;;2.53;;
14330;SDS011;7249;49.376;11.080;2024-01-16T03:46:05;5.23;;;2.60;;
14330;SDS011;7249;49.376;11.080;2024-01-16T03:48:31;2.83;;;2.63;;
14330;SDS011;7249;49.376;11.080;2024-01-16T03:50:57;6.43;;;2.00;;
14330;SDS011;7249;49.376;11.080;2024-01-16T03:53:23;3.60;;;2.30;;
14330;SDS011;7249;49.376;11.080;2024-01-16T03:55:49;4.60;;;2.43;;
14330;SDS011;7249;49.376;11.080;2024-01-16T03:58:15;3.93;;;2.87;;
14330;SDS011;7249;49.376;11.080;2024-01-16T04:00:41;4.03;;;2.40;;
14330;SDS011;7249;49.376;11.080;2024-01-16T04:03:08;2.93;;;2.37;;
14330;SDS011;7249;49.376;11.080;2024-01-16T04:05:34;7.30;;;3.17;;
14330;SDS011;7249;49.376;11.080;2024-01-16T04:08:00;3.40;;;2.40;;
14330;SDS011;7249;49.376;11.080;2024-01-16T04:10:26;3.80;;;2.47;;
14330;SDS011;7249;49.376;11.080;2024-01-16T04:12:51;4.73;;;2.93;;
14330;SDS011;7249;49.376;11.080;2024-01-16T04:15:17;4.37;;;2.63;;
14330;SDS011;7249;49.376;11.080;2024-01-16T04:17:43;3.00;;;2.30;;
14330;SDS011;7249;49.376;11.080;2024-01-16T04:20:09;2.57;;;2.10;;
14330;SDS011;7249;49.376;11.080;2024-01-16T04:22:35;3.30;;;2.13;;
14330;SDS011;7249;49.376;11.080;2024-01-16T04:25:01;2.93;;;2.43;;
14330;SDS011;7249;49.376;11.080;2024-01-16T04:27:29;3.87;;;2.57;;
14330;SDS011;7249;49.376;11.080;2024-01-16T04:29:56;2.77;;;2.40;;
14330;SDS011;7249;49.376;11.080;2024-01-16T04:32:21;2.37;;;2.00;;
14330;SDS011;7249;49.376;11.080;2024-01-16T04:34:47;3.40;;;2.70;;
14330;SDS011;7249;49.376;11.080;2024-01-16T04:37:12;6.43;;;2.43;;
14330;SDS011;7249;49.376;11.080;2024-01-16T04:39:38;5.00;;;2.97;;
14330;SDS011;7249;49.376;11.080;2024-01-16T04:42:04;3.33;;;2.47;;
14330;SDS011;7249;49.376;11.080;2024-01-16T04:44:29;4.13;;;2.53;;
14330;SDS011;7249;49.376;11.080;2024-01-16T04:46:55;5.10;;;2.17;;
14330;SDS011;7249;49.376;11.080;2024-01-16T04:49:21;2.40;;;2.20;;
14330;SDS011;7249;49.376;11.080;2024-01-16T04:51:46;2.63;;;2.00;;
14330;SDS011;7249;49.376;11.080;2024-01-16T04:54:15;3.50;;;2.73;;
14330;SDS011;7249;49.376;11.080;2024-01-16T04:56:41;3.10;;;2.10;;
14330;SDS011;7249;49.376;11.080;2024-01-16T04:59:06;3.40;;;2.80;;
14330;SDS011;7249;49.376;11.080;2024-01-16T05:01:32;3.33;;;2.47;;
14330;SDS011;7249;49.376;11.080;2024-01-16T05:03:58;6.00;;;2.47;;
14330;SDS011;7249;49.376;11.080;2024-01-16T05:06:24;5.37;;;2.83;;
14330;SDS011;7249;49.376;11.080;2024-01-16T05:08:49;4.60;;;2.67;;
14330;SDS011;7249;49.376;11.080;2024-01-16T05:11:15;5.90;;;2.93;;
14330;SDS011;7249;49.376;11.080;2024-01-16T05:13:41;5.53;;;2.37;;
14330;SDS011;7249;49.376;11.080;2024-01-16T05:16:06;4.90;;;2.20;;
14330;SDS011;7249;49.376;11.080;2024-01-16T05:18:33;4.00;;;2.37;;
14330;SDS011;7249;49.376;11.080;2024-01-16T05:20:58;3.57;;;2.67;;
14330;SDS011;7249;49.376;11.080;2024-01-16T05:23:24;6.93;;;2.47;;
14330;SDS011;7249;49.376;11.080;2024-01-16T05:25:50;7.43;;;3.37;;
14330;SDS011;7249;49.376;11.080;2024-01-16T05:28:15;4.63;;;2.87;;
14330;SDS011;7249;49.376;11.080;2024-01-16T05:30:41;4.30;;;3.03;;
14330;SDS011;7249;49.376;11.080;2024-01-16T05:33:07;3.70;;;2.70;;
14330;SDS011;7249;49.376;11.080;2024-01-16T05:35:33;4.60;;;2.70;;
14330;SDS011;7249;49.376;11.080;2024-01-16T05:37:59;3.50;;;2.50;;
14330;SDS011;7249;49.376;11.080;2024-01-16T05:40:25;5.03;;;2.67;;
14330;SDS011;7249;49.376;11.080;2024-01-16T05:42:51;4.30;;;2.47;;
14330;SDS011;7249;49.376;11.080;2024-01-16T05:45:17;3.30;;;2.53;;
14330;SDS011;7249;49.376;11.080;2024-01-16T05:47:43;4.70;;;3.17;;
14330;SDS011;7249;49.376;11.080;2024-01-16T05:50:08;7.47;;;2.97;;
14330;SDS011;7249;49.376;11.080;2024-01-16T05:52:35;5.20;;;2.37;;
14330;SDS011;7249;49.376;11.080;2024-01-16T05:55:01;5.63;;;3.27;;
14330;SDS011;7249;49.376;11.080;2024-01-16T05:57:28;7.20;;;3.10;;
14330;SDS011;7249;49.376;11.080;2024-01-16T05:59:56;4.93;;;2.63;;
14330;SDS011;7249;49.376;11.080;2024-01-16T06:02:22;6.03;;;2.50;;
14330;SDS011;7249;49.376;11.080;2024-01-16T06:04:49;5.50;;;3.03;;
14330;SDS011;7249;49.376;11.080;2024-01-16T06:07:15;3.83;;;3.10;;
14330;SDS011;7249;49.376;11.080;2024-01-16T06:09:40;5.77;;;3.10;;
14330;SDS011;7249;49.376;11.080;2024-01-16T06:12:07;4.83;;;2.30;;
14330;SDS011;7249;49.376;11.080;2024-01-16T06:14:33;4.47;;;2.50;;
14330;SDS011;7249;49.376;11.080;2024-01-16T06:16:59;3.97;;;2.53;;
14330;SDS011;7249;49.376;11.080;2024-01-16T06:19:25;3.63;;;2.43;;
14330;SDS011;7249;49.376;11.080;2024-01-16T06:21:50;6.00;;;3.10;;
14330;SDS011;7249;49.376;11.080;2024-01-16T06:24:16;6.30;;;2.90;;
14330;SDS011;7249;49.376;11.080;2024-01-16T06:26:42;3.67;;;2.50;;
14330;SDS011;7249;49.376;11.080;2024-01-16T06:29:08;4.47;;;2.50;;
14330;SDS011;7249;49.376;11.080;2024-01-16T06:31:33;5.47;;;2.50;;
14330;SDS011;7249;49.376;11.080;2024-01-16T06:33:59;3.60;;;2.33;;
14330;SDS011;7249;49.376;11.080;2024-01-16T06:36:25;4.20;;;3.00;;
14330;SDS011;7249;49.376;11.080;2024-01-16T06:38:50;3.97;;;2.97;;
14330;SDS011;7249;49.376;11.080;2024-01-16T06:41:16;4.27;;;2.40;;
14330;SDS011;7249;49.376;11.080;2024-01-16T06:43:42;5.90;;;3.10;;
14330;SDS011;7249;49.376;11.080;2024-01-16T06:46:08;4.37;;;2.67;;
14330;SDS011;7249;49.376;11.080;2024-01-16T06:48:35;4.27;;;2.50;;
14330;SDS011;7249;49.376;11.080;2024-01-16T06:51:04;5.83;;;2.97;;
14330;SDS011;7249;49.376;11.080;2024-01-16T06:53:30;4.37;;;2.53;;
14330;SDS011;7249;49.376;11.080;2024-01-16T06:55:56;4.83;;;2.90;;
14330;SDS011;7249;49.376;11.080;2024-01-16T06:58:22;4.30;;;2.77;;
14330;SDS011;7249;49.376;11.080;2024-01-16T07:00:47;4.07;;;2.97;;
14330;SDS011;7249;49.376;11.080;2024-01-16T07:03:13;4.17;;;2.87;;
14330;SDS011;7249;49.376;11.080;2024-01-16T07:05:39;4.93;;;2.97;;
14330;SDS011;7249;49.376;11.080;2024-01-16T07:08:08;3.23;;;2.53;;
14330;SDS011;7249;49.376;11.080;2024-01-16T07:10:35;4.17;;;2.63;;
14330;SDS011;7249;49.376;11.080;2024-01-16T07:13:00;8.53;;;3.33;;
14330;SDS011;7249;49.376;11.080;2024-01-16T07:15:26;5.63;;;2.83;;
14330;SDS011;7249;49.376;11.080;2024-01-16T07:17:53;4.50;;;2.80;;
14330;SDS011;7249;49.376;11.080;2024-01-16T07:20:18;3.30;;;2.50;;
14330;SDS011;7249;49.376;11.080;2024-01-16T07:22:45;3.77;;;2.70;;
14330;SDS011;7249;49.376;11.080;2024-01-16T07:25:10;5.00;;;2.80;;
14330;SDS011;7249;49.376;11.080;2024-01-16T07:27:36;3.73;;;2.23;;
14330;SDS011;7249;49.376;11.080;2024-01-16T07:30:05;4.53;;;2.40;;
14330;SDS011;7249;49.376;11.080;2024-01-16T07:32:31;4.90;;;3.00;;
14330;SDS011;7249;49.376;11.080;2024-01-16T07:34:57;5.63;;;2.90;;
14330;SDS011;7249;49.376;11.080;2024-01-16T07:37:23;2.67;;;2.30;;
14330;SDS011;7249;49.376;11.080;2024-01-16T07:39:49;4.13;;;2.30;;
14330;SDS011;7249;49.376;11.080;2024-01-16T07:42:14;5.27;;;2.70;;
14330;SDS011;7249;49.376;11.080;2024-01-16T07:44:40;4.57;;;2.53;;
14330;SDS011;7249;49.376;11.080;2024-01-16T07:47:06;6.80;;;3.10;;
14330;SDS011;7249;49.376;11.080;2024-01-16T07:49:31;5.20;;;2.87;;
14330;SDS011;7249;49.376;11.080;2024-01-16T07:51:57;3.40;;;2.77;;
14330;SDS011;7249;49.376;11.080;2024-01-16T07:54:23;6.07;;;2.97;;
14330;SDS011;7249;49.376;11.080;2024-01-16T07:56:50;4.27;;;2.60;;
14330;SDS011;7249;49.376;11.080;2024-01-16T07:59:16;4.07;;;2.50;;
14330;SDS011;7249;49.376;11.080;2024-01-16T08:01:42;3.47;;;2.77;;
14330;SDS011;7249;49.376;11.080;2024-01-16T08:04:08;3.27;;;2.57;;
14330;SDS011;7249;49.376;11.080;2024-01-16T08:06:34;4.00;;;2.70;;
14330;SDS011;7249;49.376;11.080;2024-01-16T08:08:59;3.23;;;2.40;;
14330;SDS011;7249;49.376;11.080;2024-01-16T08:11:25;4.70;;;3.00;;
14330;SDS011;7249;49.376;11.080;2024-01-16T08:13:51;3.43;;;2.70;;
14330;SDS011;7249;49.376;11.080;2024-01-16T08:16:16;5.17;;;2.50;;
14330;SDS011;7249;49.376;11.080;2024-01-16T08:18:42;6.97;;;2.73;;
14330;SDS011;7249;49.376;11.080;2024-01-16T08:21:08;4.13;;;2.63;;
14330;SDS011;7249;49.376;11.080;2024-01-16T08:23:34;4.00;;;2.60;;
14330;SDS011;7249;49.376;11.080;2024-01-16T08:25:59;5.03;;;2.90;;
14330;SDS011;7249;49.376;11.080;2024-01-16T08:28:26;5.83;;;3.13;;
14330;SDS011;7249;49.376;11.080;2024-01-16T08:30:52;3.13;;;2.17;;
14330;SDS011;7249;49.376;11.080;2024-01-16T08:33:17;5.57;;;2.53;;
14330;SDS011;7249;49.376;11.080;2024-01-16T08:35:43;8.00;;;3.20;;
14330;SDS011;7249;49.376;11.080;2024-01-16T08:38:09;4.90;;;2.60;;
14330;SDS011;7249;49.376;11.080;2024-01-16T08:40:35;5.63;;;3.27;;
14330;SDS011;7249;49.376;11.080;2024-01-16T08:43:01;8.77;;;3.10;;
14330;SDS011;7249;49.376;11.080;2024-01-16T08:45:26;5.27;;;3.07;;
14330;SDS011;7249;49.376;11.080;2024-01-16T08:47:52;5.23;;;2.67;;
14330;SDS011;7249;49.376;11.080;2024-01-16T08:50:18;4.10;;;2.80;;
14330;SDS011;7249;49.376;11.080;2024-01-16T08:52:43;3.47;;;2.27;;
14330;SDS011;7249;49.376;11.080;2024-01-16T08:55:09;3.97;;;2.43;;
14330;SDS011;7249;49.376;11.080;2024-01-16T08:57:36;5.23;;;3.07;;
14330;SDS011;7249;49.376;11.080;2024-01-16T09:00:03;3.93;;;2.57;;
14330;SDS011;7249;49.376;11.080;2024-01-16T09:02:34;4.07;;;2.93;;
14330;SDS011;7249;49.376;11.080;2024-01-16T09:05:00;4.20;;;2.50;;
14330;SDS011;7249;49.376;11.080;2024-01-16T09:07:26;5.03;;;2.80;;
14330;SDS011;7249;49.376;11.080;2024-01-16T09:09:52;4.90;;;2.70;;
14330;SDS011;7249;49.376;11.080;2024-01-16T09:12:18;3.83;;;2.60;;
14330;SDS011;7249;49.376;11.080;2024-01-16T09:14:44;6.20;;;3.10;;
14330;SDS011;7249;49.376;11.080;2024-01-16T09:17:10;5.27;;;2.50;;
14330;SDS011;7249;49.376;11.080;2024-01-16T09:19:36;3.97;;;2.73;;
14330;SDS011;7249;49.376;11.080;2024-01-16T09:22:02;3.83;;;2.27;;
14330;SDS011;7249;49.376;11.080;2024-01-16T09:24:28;7.70;;;2.90;;
14330;SDS011;7249;49.376;11.080;2024-01-16T09:26:54;5.93;;;2.93;;
14330;SDS011;7249;49.376;11.080;2024-01-16T09:29:20;3.30;;;2.73;;
14330;SDS011;7249;49.376;11.080;2024-01-16T09:31:47;4.87;;;2.97;;
14330;SDS011;7249;49.376;11.080;2024-01-16T09:34:13;5.10;;;2.73;;
14330;SDS011;7249;49.376;11.080;2024-01-16T09:36:39;6.20;;;2.93;;
14330;SDS011;7249;49.376;11.080;2024-01-16T09:39:05;3.13;;;2.63;;
14330;SDS011;7249;49.376;11.080;2024-01-16T09:41:39;7.60;;;3.13;;
14330;SDS011;7249;49.376;11.080;2024-01-16T09:44:04;3.57;;;2.47;;
14330;SDS011;7249;49.376;11.080;2024-01-16T09:46:32;3.43;;;2.50;;
14330;SDS011;7249;49.376;11.080;2024-01-16T09:48:59;3.50;;;2.60;;
14330;SDS011;7249;49.376;11.080;2024-01-16T09:51:27;4.00;;;2.57;;
14330;SDS011;7249;49.376;11.080;2024-01-16T09:53:53;4.83;;;2.20;;
14330;SDS011;7249;49.376;11.080;2024-01-16T09:56:21;4.30;;;2.50;;
14330;SDS011;7249;49.376;11.080;2024-01-16T09:58:49;9.03;;;2.70;;
14330;SDS011;7249;49.376;11.080;2024-01-16T10:01:19;3.63;;;2.40;;
14330;SDS011;7249;49.376;11.080;2024-01-16T10:03:46;6.40;;;2.80;;
14330;SDS011;7249;49.376;11.080;2024-01-16T10:06:12;4.20;;;2.73;;
14330;SDS011;7249;49.376;11.080;2024-01-16T10:08:40;3.83;;;2.53;;
14330;SDS011;7249;49.376;11.080;2024-01-16T10:11:06;5.30;;;2.20;;
14330;SDS011;7249;49.376;11.080;2024-01-16T10:13:33;3.07;;;2.47;;
14330;SDS011;7249;49.376;11.080;2024-01-16T10:16:00;3.07;;;2.37;;
14330;SDS011;7249;49.376;11.080;2024-01-16T10:18:27;2.27;;;2.07;;
14330;SDS011;7249;49.376;11.080;2024-01-16T10:20:54;5.47;;;2.13;;
14330;SDS011;7249;49.376;11.080;2024-01-16T10:23:27;2.87;;;2.23;;
14330;SDS011;7249;49.376;11.080;2024-01-16T10:26:05;4.50;;;2.50;;
14330;SDS011;7249;49.376;11.080;2024-01-16T10:28:38;3.53;;;2.00;;
14330;SDS011;7249;49.376;11.080;2024-01-16T10:31:11;3.20;;;2.07;;
14330;SDS011;7249;49.376;11.080;2024-01-16T10:33:41;2.67;;;1.90;;
14330;SDS011;7249;49.376;11.080;2024-01-16T10:36:11;2.13;;;1.70;;
14330;SDS011;7249;49.376;11.080;2024-01-16T10:38:42;4.93;;;2.40;;
14330;SDS011;7249;49.376;11.080;2024-01-16T10:43:42;4.47;;;2.00;;
14330;SDS011;7249;49.376;11.080;2024-01-16T10:48:42;2.93;;;2.40;;
14330;SDS011;7249;49.376;11.080;2024-01-16T10:51:10;2.37;;;1.93;;
14330;SDS011;7249;49.376;11.080;2024-01-16T10:53:41;4.37;;;2.40;;
14330;SDS011;7249;49.376;11.080;2024-01-16T10:56:09;2.20;;;2.00;;
14330;SDS011;7249;49.376;11.080;2024-01-16T10:58:36;6.03;;;2.10;;
14330;SDS011;7249;49.376;11.080;2024-01-16T11:01:10;3.37;;;2.03;;
14330;SDS011;7249;49.376;11.080;2024-01-16T11:03:39;5.93;;;2.27;;
14330;SDS011;7249;49.376;11.080;2024-01-16T11:06:11;2.47;;;2.27;;
14330;SDS011;7249;49.376;11.080;2024-01-16T11:08:38;2.67;;;2.00;;
14330;SDS011;7249;49.376;11.080;2024-01-16T11:11:04;3.70;;;2.03;;
14330;SDS011;7249;49.376;11.080;2024-01-16T11:13:33;3.87;;;2.23;;
14330;SDS011;7249;49.376;11.080;2024-01-16T11:16:00;2.30;;;1.90;;
14330;SDS011;7249;49.376;11.080;2024-01-16T11:18:30;3.13;;;1.70;;
14330;SDS011;7249;49.376;11.080;2024-01-16T11:20:57;2.30;;;1.83;;
14330;SDS011;7249;49.376;11.080;2024-01-16T11:23:24;2.87;;;1.83;;
14330;SDS011;7249;49.376;11.080;2024-01-16T11:25:50;3.67;;;1.90;;
14330;SDS011;7249;49.376;11.080;2024-01-16T11:28:16;5.03;;;1.80;;
14330;SDS011;7249;49.376;11.080;2024-01-16T11:30:44;3.80;;;1.90;;
14330;SDS011;7249;49.376;11.080;2024-01-16T11:35:57;3.60;;;1.90;;
14330;SDS011;7249;49.376;11.080;2024-01-16T11:38:23;2.50;;;1.73;;
14330;SDS011;7249;49.376;11.080;2024-01-16T11:40:52;3.07;;;1.80;;
14330;SDS011;7249;49.376;11.080;2024-01-16T11:46:01;4.83;;;2.17;;
14330;SDS011;7249;49.376;11.080;2024-01-16T11:48:35;2.70;;;2.20;;
14330;SDS011;7249;49.376;11.080;2024-01-16T11:51:22;2.97;;;2.10;;
14330;SDS011;7249;49.376;11.080;2024-01-16T11:53:49;3.37;;;2.23;;
14330;SDS011;7249;49.376;11.080;2024-01-16T11:59:27;3.33;;;1.80;;
14330;SDS011;7249;49.376;11.080;2024-01-16T12:01:58;3.60;;;2.10;;
14330;SDS011;7249;49.376;11.080;2024-01-16T12:04:25;3.67;;;1.97;;
14330;SDS011;7249;49.376;11.080;2024-01-16T12:06:57;3.13;;;1.70;;
14330;SDS011;7249;49.376;11.080;2024-01-16T12:09:25;3.53;;;1.70;;
14330;SDS011;7249;49.376;11.080;2024-01-16T12:11:56;2.97;;;1.93;;
14330;SDS011;7249;49.376;11.080;2024-01-16T12:14:29;1.93;;;1.77;;
14330;SDS011;7249;49.376;11.080;2024-01-16T12:17:13;2.57;;;1.70;;
14330;SDS011;7249;49.376;11.080;2024-01-16T12:19:40;3.27;;;2.10;;
14330;SDS011;7249;49.376;11.080;2024-01-16T12:22:10;3.93;;;2.20;;
14330;SDS011;7249;49.376;11.080;2024-01-16T12:24:39;2.23;;;1.73;;
14330;SDS011;7249;49.376;11.080;2024-01-16T12:27:05;2.10;;;1.90;;
14330;SDS011;7249;49.376;11.080;2024-01-16T12:29:31;3.63;;;1.90;;
14330;SDS011;7249;49.376;11.080;2024-01-16T12:32:07;3.83;;;1.77;;
14330;SDS011;7249;49.376;11.080;2024-01-16T12:34:48;5.33;;;1.90;;
14330;SDS011;7249;49.376;11.080;2024-01-16T12:37:14;3.70;;;2.07;;
14330;SDS011;7249;49.376;11.080;2024-01-16T12:39:40;1.63;;;1.50;;
14330;SDS011;7249;49.376;11.080;2024-01-16T12:42:09;3.60;;;2.00;;
14330;SDS011;7249;49.376;11.080;2024-01-16T12:44:36;4.27;;;1.67;;
14330;SDS011;7249;49.376;11.080;2024-01-16T12:47:02;3.70;;;2.23;;
14330;SDS011;7249;49.376;11.080;2024-01-16T12:49:28;6.13;;;2.07;;
14330;SDS011;7249;49.376;11.080;2024-01-16T12:54:40;2.67;;;1.70;;
14330;SDS011;7249;49.376;11.080;2024-01-16T12:57:05;2.80;;;1.73;;
14330;SDS011;7249;49.376;11.080;2024-01-16T12:59:32;2.80;;;1.53;;
14330;SDS011;7249;49.376;11.080;2024-01-16T13:01:57;2.30;;;1.43;;
14330;SDS011;7249;49.376;11.080;2024-01-16T13:04:23;2.37;;;2.00;;
14330;SDS011;7249;49.376;11.080;2024-01-16T13:06:49;3.27;;;2.00;;
14330;SDS011;7249;49.376;11.080;2024-01-16T13:09:15;2.13;;;1.87;;
14330;SDS011;7249;49.376;11.080;2024-01-16T13:11:59;3.27;;;1.63;;
14330;SDS011;7249;49.376;11.080;2024-01-16T13:14:25;3.17;;;1.93;;
14330;SDS011;7249;49.376;11.080;2024-01-16T13:16:51;5.33;;;1.90;;
14330;SDS011;7249;49.376;11.080;2024-01-16T13:19:18;5.90;;;2.37;;
14330;SDS011;7249;49.376;11.080;2024-01-16T13:21:44;2.43;;;1.73;;
14330;SDS011;7249;49.376;11.080;2024-01-16T13:24:11;1.80;;;1.60;;
14330;SDS011;7249;49.376;11.080;2024-01-16T13:26:38;3.43;;;1.80;;
14330;SDS011;7249;49.376;11.080;2024-01-16T13:29:04;2.83;;;1.80;;
14330;SDS011;7249;49.376;11.080;2024-01-16T13:31:31;2.20;;;1.97;;
14330;SDS011;7249;49.376;11.080;2024-01-16T13:33:57;2.10;;;1.80;;
14330;SDS011;7249;49.376;11.080;2024-01-16T13:36:23;2.87;;;2.10;;
14330;SDS011;7249;49.376;11.080;2024-01-16T13:38:49;5.23;;;2.63;;
14330;SDS011;7249;49.376;11.080;2024-01-16T13:41:15;2.90;;;2.30;;
14330;SDS011;7249;49.376;11.080;2024-01-16T13:43:41;2.50;;;1.60;;
14330;SDS011;7249;49.376;11.080;2024-01-16T13:46:06;2.73;;;1.80;;
14330;SDS011;7249;49.376;11.080;2024-01-16T13:48:33;3.53;;;1.70;;
14330;SDS011;7249;49.376;11.080;2024-01-16T13:50:59;1.60;;;1.43;;
14330;SDS011;7249;49.376;11.080;2024-01-16T13:53:25;3.13;;;1.77;;
14330;SDS011;7249;49.376;11.080;2024-01-16T13:55:51;6.17;;;2.10;;
14330;SDS011;7249;49.376;11.080;2024-01-16T13:58:16;3.30;;;1.77;;
14330;SDS011;7249;49.376;11.080;2024-01-16T14:00:43;1.93;;;1.63;;
14330;SDS011;7249;49.376;11.080;2024-01-16T14:03:09;4.07;;;1.80;;
14330;SDS011;7249;49.376;11.080;2024-01-16T14:05:35;2.67;;;1.60;;
14330;SDS011;7249;49.376;11.080;2024-01-16T14:08:01;2.63;;;2.10;;
14330;SDS011;7249;49.376;11.080;2024-01-16T14:10:27;1.63;;;1.53;;
14330;SDS011;7249;49.376;11.080;2024-01-16T14:12:55;2.03;;;1.83;;
14330;SDS011;7249;49.376;11.080;2024-01-16T14:15:21;5.63;;;1.90;;
14330;SDS011;7249;49.376;11.080;2024-01-16T14:20:17;3.37;;;2.23;;
14330;SDS011;7249;49.376;11.080;2024-01-16T14:22:48;3.87;;;2.00;;
14330;SDS011;7249;49.376;11.080;2024-01-16T14:25:14;2.43;;;2.03;;
14330;SDS011;7249;49.376;11.080;2024-01-16T14:27:44;2.80;;;2.07;;
14330;SDS011;7249;49.376;11.080;2024-01-16T14:30:23;4.53;;;2.17;;
14330;SDS011;7249;49.376;11.080;2024-01-16T14:32:50;3.97;;;1.80;;
14330;SDS011;7249;49.376;11.080;2024-01-16T14:35:16;2.30;;;1.80;;
14330;SDS011;7249;49.376;11.080;2024-01-16T14:37:42;4.37;;;1.60;;
14330;SDS011;7249;49.376;11.080;2024-01-16T14:40:09;2.53;;;1.80;;
14330;SDS011;7249;49.376;11.080;2024-01-16T14:42:43;7.33;;;3.10;;
14330;SDS011;7249;49.376;11.080;2024-01-16T14:45:10;3.63;;;2.07;;
14330;SDS011;7249;49.376;11.080;2024-01-16T14:47:37;3.13;;;2.03;;
14330;SDS011;7249;49.376;11.080;2024-01-16T14:50:03;3.53;;;1.87;;
14330;SDS011;7249;49.376;11.080;2024-01-16T14:52:30;3.00;;;1.93;;
14330;SDS011;7249;49.376;11.080;2024-01-16T14:55:00;2.03;;;1.60;;
14330;SDS011;7249;49.376;11.080;2024-01-16T14:57:27;5.27;;;2.27;;
14330;SDS011;7249;49.376;11.080;2024-01-16T14:59:55;2.93;;;2.07;;
14330;SDS011;7249;49.376;11.080;2024-01-16T15:02:21;2.20;;;1.87;;
14330;SDS011;7249;49.376;11.080;2024-01-16T15:04:47;3.80;;;1.80;;